• Join FlightAware (Why Join?)
  • Login
  • US Flag 
08:07PM EDT


 

Airport Tracker/Info


-or-


 

Live Flight TrackerFlight Track Log ✈ UCA4838 ✈ 18-Jun-2013 ✈ KROC - KEWR

Flight Track Log - Related Links

Times and Time Zones

All times are in EDT time to prevent confusion due to time zone crossing. See the UCA4838 flight status page for this flight to view local times or setup timezone preferences in your user account.

Time Position Orientation Groundspeed Altitude Reporting Facility
EDT Latitude Longitude Course Direction KTS MPH feet Rate Location/Type
06:15AM 43.1261 -77.6731 113° Southeast 125 144 1,000  Level Cleveland Center
06:16AM 43.1078 -77.6142 113° Southeast 159 183 2,400 1,080 Climbing Cleveland Center
06:17AM 43.0811 -77.5472 119° Southeast 180 207 3,700 1,020 Climbing Cleveland Center
06:17AM 43.0719 -77.5222 117° Southeast 190 219 4,100 840 Climbing Cleveland Center
06:18AM 43.0411 -77.4583 123° Southeast 200 230 5,000 600 Climbing Cleveland Center
06:19AM 43.0017 -77.3836 126° Southeast 220 253 5,300 840 Climbing Cleveland Center
06:20AM 42.9703 -77.3058 119° Southeast 232 267 6,700 1,380 Climbing Cleveland Center
06:21AM 42.9369 -77.2367 123° Southeast 232 267 8,100 1,260 Climbing Cleveland Center
06:22AM 42.9058 -77.1647 121° Southeast 227 261 9,200 1,140 Climbing Cleveland Center
06:23AM 42.8725 -77.0956 123° Southeast 227 261 10,400 960 Climbing Cleveland Center
06:25AM 42.8111 -76.9644 123° Southeast 226 260 12,100 900 Climbing New York Center
06:26AM 42.7775 -76.8878 121° Southeast 231 266 13,000 420 Climbing New York Center
06:27AM 42.7403 -76.8025 121° Southeast 237 273 13,000  Level New York Center
06:28AM 42.7011 -76.7142 121° Southeast 258 297 13,000  Level New York Center
06:29AM 42.6578 -76.6200 122° Southeast 280 322 13,000  Level New York Center
06:30AM 42.6167 -76.5261 121° Southeast 285 328 13,000  Level New York Center
06:31AM 42.5753 -76.4353 122° Southeast 285 328 13,000  Level New York Center
06:32AM 42.5353 -76.3458 121° Southeast 284 327 13,000  Level Boston Center
06:33AM 42.5078 -76.2428 110° East 284 327 13,000  Level Boston Center
06:34AM 42.4900 -76.1431 104° East 289 333 13,000  Level Boston Center
06:35AM 42.4728 -76.0322 102° East 289 333 13,000  Level Boston Center
06:36AM 42.4536 -75.9156 103° East 300 345 13,000  Level Boston Center
06:37AM 42.4361 -75.7964 101° East 300 345 13,000  Level Boston Center
06:38AM 42.4456 -75.6956 83° East 288 331 13,000  Level Boston Center
06:39AM 42.4528 -75.5778 85° East 288 331 13,000  Level Boston Center
06:40AM 42.4622 -75.4686 83° East 294 338 13,000  Level Boston Center
06:41AM 42.4714 -75.3564 84° East 294 338 13,000  Level Boston Center
06:42AM 42.4358 -75.2731 120° Southeast 259 298 13,000  Level Boston Center
06:43AM 42.3653 -75.1828 137° Southeast 265 305 13,000  Level Boston Center
06:44AM 42.3061 -75.1211 142° Southeast 270 311 13,000  Level Boston Center
06:45AM 42.2450 -75.0597 143° Southeast 270 311 13,000  Level Boston Center
06:46AM 42.1883 -74.9900 138° Southeast 276 318 13,000  Level Boston Center
06:47AM 42.1272 -74.9261 142° Southeast 276 318 13,000 -120 Level Boston Center
06:48AM 42.0572 -74.8897 159° South 271 312 12,800 -600 Descending Boston Center
06:49AM 41.9911 -74.8592 161° South 271 312 11,900 -1,020 Descending Boston Center
06:50AM 41.9167 -74.8256 161° South 262 302 10,800 -900 Descending Boston Center
06:51AM 41.8653 -74.8014 161° South 262 302 10,100 -960 Descending Boston Center
06:52AM 41.7847 -74.7650 161° South 255 293 8,900 -1,140 Descending Boston Center
06:53AM 41.7289 -74.7378 160° South 250 288 7,900 -960 Descending Boston Center
06:54AM 41.6567 -74.7047 161° South 244 281 7,000 -480 Descending Boston Center
06:55AM 41.5967 -74.6747 159° South 244 281 7,000 -420 Level Boston Center
06:56AM 41.5203 -74.6417 162° South 249 287 6,200 -540 Descending Boston Center
06:57AM 41.4564 -74.6117 161° South 260 299 6,000 -120 Descending Boston Center
06:58AM 41.3792 -74.6036 176° South 260 299 6,000  Level Boston Center
07:00AM 41.3000 -74.6167 187° South 251 289 6,000  Level New York TRACON
07:01AM 41.2333 -74.6167 180° South 250 288 6,000  Level New York TRACON
07:02AM 41.1667 -74.6000 169° South 248 285 6,000  Level New York TRACON
07:02AM 41.1000 -74.6000 180° South 248 285 6,000  Level New York TRACON
07:03AM 41.0333 -74.6000 180° South 246 283 6,000  Level New York TRACON
07:04AM 40.9667 -74.5833 169° South 249 287 6,000  Level New York TRACON
07:05AM 40.9000 -74.5833 180° South 247 284 6,000 -480 Level New York TRACON
07:06AM 40.8333 -74.5833 180° South 262 302 5,200 -540 Descending New York TRACON
07:07AM 40.7833 -74.6333 217° Southwest 258 297 5,000 -120 Descending New York TRACON
07:08AM 40.7000 -74.6333 180° South 251 289 5,000  Level New York TRACON
07:09AM 40.6500 -74.6000 153° Southeast 253 291 5,000  Level New York TRACON
07:10AM 40.5833 -74.5667 159° South 249 287 5,000 -420 Level New York TRACON
07:11AM 40.5333 -74.5167 143° Southeast 235 270 4,200 -960 Descending New York TRACON
07:12AM 40.5000 -74.4500 123° Southeast 234 269 3,100 -660 Descending New York TRACON
07:13AM 40.4667 -74.3667 118° Southeast 231 266 3,000 -60 Descending New York TRACON
07:14AM 40.5000 -74.3000 57° Northeast 235 270 3,000 -180 Level New York TRACON
07:15AM 40.5500 -74.2500 37° Northeast 226 260 2,700 -720 Descending New York TRACON
07:16AM 40.6000 -74.2167 27° Northeast 193 222 1,600 -960 Descending New York TRACON
07:17AM 40.6500 -74.2000 14° North 141 162 800 -840 Descending New York TRACON